Whaleyville, Maryland
Current Conditions -  °F | °C
As of 2:53 PM on Thursday 29 Jan 2015 (Local Time) from KOXB Reporting Station
Clear Clear  
Wind Chill: 30°   Ceiling: Unl
Heat Index: 34°   Visibility: 10mi
Dew Point: 22°   Wind: 5mph
Humidity: 61%   Direction: 190°S
Pressure: 30.2"   Gusts: NA
Location:  38.4°N, 75.3°W
Report Text: KOXB 291953Z AUTO 19004KT 10SM CLR 01/M06 A3020 RMK AO2 SLP227 T00111056 TSNO
Loading
Personal Weather Stations






























Interactive Weather Map New forecast layout! Learn more

10-Day Weather Forecast

Advertisements
Track Severe Weather on mobile